createdAt,value
2022-12-26T00:00:52.822Z,18.60
2022-12-26T00:03:34.374Z,18.10
2022-12-26T00:06:01.013Z,18.40
2022-12-26T00:08:27.992Z,19.10
2022-12-26T00:10:54.594Z,18.70
2022-12-26T00:13:39.306Z,17.60
2022-12-26T00:16:16.551Z,19.20
2022-12-26T00:18:43.723Z,19.20
2022-12-26T00:21:12.845Z,18.40
2022-12-26T00:23:40.418Z,18.80
2022-12-26T00:26:13.370Z,18.30
2022-12-26T00:28:40.630Z,18.90
2022-12-26T00:31:12.815Z,18.70
2022-12-26T00:33:39.592Z,17.80
2022-12-26T00:36:31.045Z,18.00
2022-12-26T00:38:59.760Z,17.30
2022-12-26T00:41:26.991Z,17.50
2022-12-26T00:43:53.836Z,17.60
2022-12-26T00:46:25.406Z,17.60
2022-12-26T00:48:52.627Z,17.40
2022-12-26T00:51:19.616Z,17.00
2022-12-26T00:53:46.328Z,17.50
2022-12-26T00:56:13.048Z,17.30
2022-12-26T00:58:41.633Z,17.40
2022-12-26T01:01:16.301Z,17.30
2022-12-26T01:03:44.133Z,17.40
2022-12-26T01:06:11.377Z,17.30
2022-12-26T01:08:38.582Z,17.20
2022-12-26T01:11:08.245Z,16.20
2022-12-26T01:13:35.635Z,16.80
2022-12-26T01:16:03.277Z,16.40
2022-12-26T01:18:30.803Z,16.50
2022-12-26T01:21:02.494Z,16.10
2022-12-26T01:23:29.446Z,16.10
2022-12-26T01:26:16.872Z,15.90
2022-12-26T01:28:42.750Z,16.80
2022-12-26T01:31:09.455Z,16.40
2022-12-26T01:33:36.218Z,16.40
2022-12-26T01:36:03.079Z,16.40
2022-12-26T01:38:29.736Z,15.70
2022-12-26T01:41:15.341Z,16.40
2022-12-26T01:44:07.008Z,16.30
2022-12-26T01:46:43.878Z,16.50
2022-12-26T01:49:34.528Z,15.90
2022-12-26T01:52:09.035Z,15.70
2022-12-26T01:54:42.655Z,16.70
2022-12-26T01:57:16.418Z,16.40
2022-12-26T01:59:44.486Z,16.10
2022-12-26T02:02:11.980Z,17.00
2022-12-26T02:05:02.394Z,17.00
2022-12-26T02:07:29.483Z,16.70
2022-12-26T02:09:56.321Z,15.90
2022-12-26T02:12:34.978Z,16.50
2022-12-26T02:15:11.498Z,16.10
2022-12-26T02:17:39.086Z,16.20
2022-12-26T02:20:25.465Z,16.00
2022-12-26T02:23:19.665Z,15.70
2022-12-26T02:26:07.874Z,15.80
2022-12-26T02:28:53.095Z,15.90
2022-12-26T02:31:58.208Z,17.00
2022-12-26T02:34:43.481Z,16.50
2022-12-26T02:37:35.927Z,15.20
2022-12-26T02:40:16.784Z,16.30
2022-12-26T02:43:06.530Z,15.90
2022-12-26T02:46:03.482Z,16.40
2022-12-26T02:48:32.921Z,16.70
2022-12-26T02:51:23.771Z,16.60
2022-12-26T02:54:27.428Z,17.80
2022-12-26T02:57:22.328Z,17.90
2022-12-26T03:00:29.607Z,17.10
2022-12-26T03:03:20.779Z,17.80
2022-12-26T03:06:21.767Z,17.90
2022-12-26T03:09:07.140Z,18.30
2022-12-26T03:11:58.797Z,19.10
2022-12-26T03:14:29.613Z,19.70
2022-12-26T03:17:21.195Z,19.20
2022-12-26T03:20:03.702Z,19.30
2022-12-26T03:22:56.585Z,19.20
2022-12-26T03:25:53.632Z,18.50
2022-12-26T03:28:21.600Z,18.30
2022-12-26T03:30:48.530Z,18.70
2022-12-26T03:33:37.812Z,18.00
2022-12-26T03:36:05.714Z,18.20
2022-12-26T03:38:50.953Z,19.10
2022-12-26T03:41:53.289Z,17.40
2022-12-26T03:44:53.434Z,18.30
2022-12-26T03:48:03.503Z,19.00
2022-12-26T03:50:48.474Z,18.60
2022-12-26T03:53:45.930Z,18.60
2022-12-26T03:56:53.698Z,18.30
2022-12-26T03:59:49.908Z,17.70
2022-12-26T04:02:37.866Z,18.50
2022-12-26T04:05:25.602Z,18.20
2022-12-26T04:08:19.043Z,17.90
2022-12-26T04:11:14.761Z,17.80
2022-12-26T04:14:17.434Z,17.70
2022-12-26T04:17:19.047Z,17.80
2022-12-26T04:20:13.103Z,17.90
2022-12-26T04:22:58.217Z,18.50
2022-12-26T04:25:54.058Z,18.80
2022-12-26T04:28:41.437Z,19.10
2022-12-26T04:31:59.980Z,20.00
2022-12-26T04:35:01.143Z,20.70
2022-12-26T04:37:49.080Z,19.80
2022-12-26T04:40:40.343Z,19.90
2022-12-26T04:43:48.240Z,19.80
2022-12-26T04:46:16.005Z,20.40
2022-12-26T04:49:04.596Z,19.80
2022-12-26T04:51:33.769Z,20.70
2022-12-26T04:54:00.762Z,20.10
2022-12-26T04:56:27.405Z,20.40
2022-12-26T04:58:54.125Z,20.50
2022-12-26T05:01:40.326Z,19.40
2022-12-26T05:04:31.537Z,19.80
2022-12-26T05:07:18.442Z,19.20
2022-12-26T05:09:46.423Z,18.40
2022-12-26T05:12:12.979Z,18.70
2022-12-26T05:14:39.617Z,19.00
2022-12-26T05:17:25.888Z,18.20
2022-12-26T05:20:11.142Z,17.80
2022-12-26T05:22:59.193Z,16.00
2022-12-26T05:25:47.860Z,15.50
2022-12-26T05:28:34.758Z,15.30
2022-12-26T05:31:02.583Z,13.70
2022-12-26T05:33:47.826Z,13.00
2022-12-26T05:36:16.991Z,12.40
2022-12-26T05:38:43.583Z,12.70
2022-12-26T05:41:10.366Z,13.50
2022-12-26T05:43:37.021Z,13.80
2022-12-26T05:46:03.958Z,11.80
2022-12-26T05:48:30.977Z,13.50
2022-12-26T05:50:59.570Z,14.20
2022-12-26T05:53:27.050Z,13.50
2022-12-26T05:55:53.990Z,14.00
2022-12-26T05:58:21.640Z,14.80
2022-12-26T06:00:48.321Z,13.30
2022-12-26T06:03:14.959Z,15.90
2022-12-26T06:05:41.823Z,15.10
2022-12-26T06:08:08.511Z,14.60
2022-12-26T06:10:35.071Z,13.70
2022-12-26T06:13:01.663Z,11.50
2022-12-26T06:15:28.302Z,12.20
2022-12-26T06:17:56.172Z,10.70
2022-12-26T06:20:22.910Z,10.30
2022-12-26T06:22:49.620Z,10.40
2022-12-26T06:25:16.404Z,10.30
2022-12-26T06:27:43.423Z,10.10
2022-12-26T06:30:10.404Z,9.90
2022-12-26T06:32:37.114Z,9.30
2022-12-26T06:35:04.108Z,10.10
2022-12-26T06:37:33.053Z,10.10
2022-12-26T06:39:59.694Z,9.20
2022-12-26T06:42:27.997Z,8.70
2022-12-26T06:44:54.726Z,8.70
2022-12-26T06:47:21.384Z,8.10
2022-12-26T06:49:48.007Z,8.00
2022-12-26T06:52:14.619Z,8.60
2022-12-26T06:54:41.297Z,8.70
2022-12-26T06:57:07.891Z,8.40
2022-12-26T06:59:34.449Z,8.00
2022-12-26T07:02:01.614Z,7.90
2022-12-26T07:04:28.530Z,7.80
2022-12-26T07:06:55.265Z,7.80
2022-12-26T07:09:24.907Z,8.40
2022-12-26T07:11:55.795Z,8.00
2022-12-26T07:14:22.443Z,7.70
2022-12-26T07:16:49.250Z,8.30
2022-12-26T07:19:16.120Z,8.50
2022-12-26T07:21:43.448Z,8.30
2022-12-26T07:24:18.695Z,8.00
2022-12-26T07:26:46.288Z,8.20
2022-12-26T07:29:13.800Z,7.90
2022-12-26T07:31:41.538Z,7.80
2022-12-26T07:34:08.576Z,7.90
2022-12-26T07:36:35.481Z,7.50
2022-12-26T07:39:02.259Z,7.40
2022-12-26T07:41:48.130Z,7.50
2022-12-26T07:44:14.939Z,8.80
2022-12-26T07:46:41.742Z,8.20
2022-12-26T07:49:11.018Z,8.50
2022-12-26T07:51:37.973Z,7.70
2022-12-26T07:54:10.750Z,7.90
2022-12-26T07:56:39.196Z,7.20
2022-12-26T07:59:06.344Z,7.10
2022-12-26T08:01:33.169Z,7.80
2022-12-26T08:03:59.975Z,8.50
2022-12-26T08:06:27.883Z,8.90
2022-12-26T08:08:54.618Z,8.80
2022-12-26T08:11:23.398Z,7.60
2022-12-26T08:13:51.437Z,8.00
2022-12-26T08:16:19.408Z,7.90
2022-12-26T08:18:46.088Z,8.00
2022-12-26T08:21:12.673Z,7.50
2022-12-26T08:23:39.691Z,7.70
2022-12-26T08:26:08.824Z,8.00
2022-12-26T08:28:35.800Z,6.90
2022-12-26T08:31:07.466Z,7.10
2022-12-26T08:33:35.459Z,7.10
2022-12-26T08:36:06.890Z,7.60
2022-12-26T08:38:34.018Z,7.00
2022-12-26T08:41:01.082Z,6.50
2022-12-26T08:44:16.078Z,6.60
2022-12-26T08:46:15.109Z,7.90
2022-12-26T08:48:42.095Z,6.20
2022-12-26T08:51:13.473Z,6.70
2022-12-26T08:53:41.064Z,6.80
2022-12-26T08:56:13.297Z,6.60
2022-12-26T08:58:40.887Z,6.60
2022-12-26T09:01:11.114Z,6.30
2022-12-26T09:03:39.732Z,5.60
2022-12-26T09:06:08.151Z,6.20
2022-12-26T09:08:36.478Z,8.20
2022-12-26T09:11:26.239Z,9.70
2022-12-26T09:13:54.951Z,10.80
2022-12-26T09:16:24.795Z,7.90
2022-12-26T09:18:58.052Z,10.80
2022-12-26T09:21:26.892Z,7.20
2022-12-26T09:23:58.175Z,8.20
2022-12-26T09:26:25.634Z,12.90
2022-12-26T09:28:52.977Z,14.70
2022-12-26T09:31:25.189Z,14.40
2022-12-26T09:33:53.330Z,14.40
2022-12-26T09:36:31.032Z,12.50
2022-12-26T09:38:58.475Z,12.70
2022-12-26T09:41:47.129Z,11.20
2022-12-26T09:44:38.032Z,13.40
2022-12-26T09:47:20.041Z,15.70
2022-12-26T09:50:10.652Z,16.50
2022-12-26T09:52:49.069Z,19.70
2022-12-26T09:55:34.934Z,22.00
2022-12-26T09:58:15.027Z,22.00
2022-12-26T10:00:51.840Z,21.70
2022-12-26T10:03:19.546Z,19.60
2022-12-26T10:06:18.627Z,17.10
2022-12-26T10:09:03.525Z,17.60
2022-12-26T10:11:53.781Z,17.20
2022-12-26T10:14:58.091Z,16.90
2022-12-26T10:17:33.858Z,20.90
2022-12-26T10:20:38.231Z,21.40
2022-12-26T10:23:28.010Z,21.30
2022-12-26T10:26:21.613Z,25.00
2022-12-26T10:29:02.183Z,20.90
2022-12-26T10:31:47.145Z,21.80
2022-12-26T10:34:25.731Z,27.60
2022-12-26T10:37:23.402Z,23.30
2022-12-26T10:40:11.930Z,20.10
2022-12-26T10:42:39.764Z,21.60
2022-12-26T10:45:12.517Z,22.80
2022-12-26T10:47:42.125Z,24.90
2022-12-26T10:50:27.345Z,28.00
2022-12-26T10:52:56.603Z,34.50
2022-12-26T10:55:31.579Z,33.30
2022-12-26T10:58:30.882Z,33.50
2022-12-26T11:01:26.792Z,32.20
2022-12-26T11:03:56.008Z,32.40
2022-12-26T11:06:27.897Z,29.80
2022-12-26T11:08:55.289Z,29.40
2022-12-26T11:11:45.254Z,31.60
2022-12-26T11:14:43.951Z,31.40
2022-12-26T11:17:26.146Z,31.20
2022-12-26T11:20:29.939Z,30.70
2022-12-26T11:23:18.151Z,33.10
2022-12-26T11:25:53.230Z,35.20
2022-12-26T11:28:34.614Z,37.10
2022-12-26T11:31:05.693Z,37.90
2022-12-26T11:33:42.831Z,40.70
2022-12-26T11:36:15.309Z,42.00
2022-12-26T11:38:56.635Z,44.30
2022-12-26T11:41:31.883Z,45.00
2022-12-26T11:44:18.832Z,42.60
2022-12-26T11:46:54.194Z,44.10
2022-12-26T11:49:26.563Z,46.80
2022-12-26T11:51:58.888Z,47.00
2022-12-26T11:54:46.951Z,42.70
2022-12-26T11:57:22.083Z,39.80
2022-12-26T11:59:51.029Z,42.60
2022-12-26T12:02:17.948Z,33.10
2022-12-26T12:04:46.414Z,33.50
2022-12-26T12:07:27.697Z,37.20
2022-12-26T12:10:35.801Z,36.80
2022-12-26T12:13:31.411Z,38.20
2022-12-26T12:16:20.097Z,29.20
2022-12-26T12:19:14.451Z,22.50
2022-12-26T12:21:53.207Z,21.20
2022-12-26T12:24:35.024Z,18.80
2022-12-26T12:27:37.742Z,16.50
2022-12-26T12:30:24.377Z,16.30
2022-12-26T12:32:59.997Z,15.50
2022-12-26T12:35:47.329Z,14.90
2022-12-26T12:38:13.964Z,15.20
2022-12-26T12:41:25.190Z,14.90
2022-12-26T12:44:12.568Z,15.80
2022-12-26T12:47:01.409Z,15.80
2022-12-26T12:50:02.461Z,14.40
2022-12-26T12:52:42.930Z,14.30
2022-12-26T12:55:27.791Z,13.20
2022-12-26T12:57:57.439Z,13.40
2022-12-26T13:00:41.833Z,12.20
2022-12-26T13:03:16.192Z,12.30
2022-12-26T13:05:55.205Z,10.60
2022-12-26T13:08:35.025Z,11.00
2022-12-26T13:11:28.425Z,9.60
2022-12-26T13:14:21.771Z,9.20
2022-12-26T13:17:03.250Z,9.70
2022-12-26T13:19:40.641Z,9.40
2022-12-26T13:22:14.998Z,8.70
2022-12-26T13:24:45.840Z,8.80
2022-12-26T13:27:20.937Z,9.10
2022-12-26T13:29:48.833Z,10.00
2022-12-26T13:32:21.684Z,9.70
2022-12-26T13:34:49.333Z,9.20
2022-12-26T13:37:37.535Z,8.70
2022-12-26T13:40:10.313Z,8.70
2022-12-26T13:43:12.227Z,8.40
2022-12-26T13:45:41.967Z,6.80
2022-12-26T13:48:14.921Z,6.30
2022-12-26T13:50:55.724Z,5.80
2022-12-26T13:53:31.030Z,5.90
2022-12-26T13:56:02.889Z,4.90
2022-12-26T13:58:48.368Z,6.90
2022-12-26T14:01:57.596Z,7.00
2022-12-26T14:05:00.385Z,7.50
2022-12-26T14:07:45.044Z,6.30
2022-12-26T14:10:45.090Z,5.20
2022-12-26T14:13:30.443Z,5.80
2022-12-26T14:16:05.063Z,6.40
2022-12-26T14:18:48.902Z,6.70
2022-12-26T14:21:43.400Z,5.80
2022-12-26T14:24:12.706Z,5.70
2022-12-26T14:26:55.923Z,5.10
2022-12-26T14:29:45.077Z,5.20
2022-12-26T14:32:26.974Z,5.10
2022-12-26T14:35:22.999Z,4.30
2022-12-26T14:38:06.129Z,5.20
2022-12-26T14:40:35.836Z,6.50
2022-12-26T14:43:10.751Z,7.60
2022-12-26T14:45:39.850Z,5.90
2022-12-26T14:48:15.228Z,5.80
2022-12-26T14:50:50.773Z,6.90
2022-12-26T14:53:26.805Z,7.80
2022-12-26T14:56:01.014Z,9.50
2022-12-26T14:58:30.838Z,9.60
2022-12-26T15:01:21.147Z,10.90
2022-12-26T15:04:14.704Z,12.60
2022-12-26T15:07:18.455Z,13.30
2022-12-26T15:10:05.191Z,14.40
2022-12-26T15:12:58.882Z,10.80
2022-12-26T15:15:28.152Z,8.80
2022-12-26T15:18:25.628Z,6.80
2022-12-26T15:21:18.873Z,5.20
2022-12-26T15:25:08.222Z,5.10
2022-12-26T15:27:31.320Z,4.90
2022-12-26T15:30:16.610Z,4.60
2022-12-26T15:33:02.510Z,4.00
2022-12-26T15:35:34.248Z,4.30
2022-12-26T15:38:18.362Z,4.20
2022-12-26T15:40:54.043Z,4.50
2022-12-26T15:44:16.064Z,4.80
2022-12-26T15:47:02.268Z,4.10
2022-12-26T15:49:45.514Z,4.40
2022-12-26T15:52:40.753Z,4.50
2022-12-26T15:55:31.299Z,4.70
2022-12-26T15:58:13.187Z,4.70
2022-12-26T16:00:51.357Z,5.10
2022-12-26T16:03:30.497Z,5.10
2022-12-26T16:06:09.018Z,5.20
2022-12-26T16:09:09.172Z,5.00
2022-12-26T16:11:47.393Z,5.00
2022-12-26T16:14:34.570Z,5.20
2022-12-26T16:17:13.019Z,5.30
2022-12-26T16:19:42.519Z,5.00
2022-12-26T16:22:46.853Z,5.10
2022-12-26T16:25:25.486Z,4.70
2022-12-26T16:27:56.554Z,5.00
2022-12-26T16:30:26.857Z,5.00
2022-12-26T16:32:54.428Z,4.60
2022-12-26T16:35:27.838Z,4.80
2022-12-26T16:37:57.572Z,4.60
2022-12-26T16:40:33.439Z,5.40
2022-12-26T16:43:24.657Z,5.60
2022-12-26T16:46:11.915Z,5.60
2022-12-26T16:48:40.004Z,5.90
2022-12-26T16:51:37.427Z,6.40
2022-12-26T16:54:19.010Z,7.20
2022-12-26T16:56:52.190Z,7.30
2022-12-26T16:59:22.903Z,6.20
2022-12-26T17:01:54.087Z,6.90
2022-12-26T17:04:23.672Z,6.10
2022-12-26T17:06:51.993Z,7.30
2022-12-26T17:09:22.131Z,7.00
2022-12-26T17:11:57.692Z,6.20
2022-12-26T17:14:39.685Z,5.90
2022-12-26T17:17:27.289Z,6.00
2022-12-26T17:19:56.720Z,6.10
2022-12-26T17:22:34.902Z,6.00
2022-12-26T17:25:24.088Z,5.70
2022-12-26T17:28:09.143Z,6.30
2022-12-26T17:30:41.735Z,5.90
2022-12-26T17:33:13.764Z,5.10
2022-12-26T17:36:38.245Z,5.40
2022-12-26T17:38:29.805Z,5.80
2022-12-26T17:41:03.069Z,5.50
2022-12-26T17:43:38.134Z,5.10
2022-12-26T17:46:06.809Z,6.00
2022-12-26T17:48:34.501Z,6.00
2022-12-26T17:51:04.450Z,5.90
2022-12-26T17:53:32.624Z,6.00
2022-12-26T17:56:02.357Z,5.90
2022-12-26T17:58:30.150Z,6.70
2022-12-26T18:00:58.475Z,7.40
2022-12-26T18:03:25.253Z,6.40
2022-12-26T18:05:55.792Z,6.30
2022-12-26T18:08:39.917Z,6.00
2022-12-26T18:11:11.488Z,6.20
2022-12-26T18:13:38.838Z,6.10
2022-12-26T18:16:06.903Z,5.70
2022-12-26T18:18:36.716Z,5.40
2022-12-26T18:21:05.770Z,5.50
2022-12-26T18:23:32.594Z,5.40
2022-12-26T18:26:02.056Z,5.30
2022-12-26T18:28:29.016Z,5.30
2022-12-26T18:30:57.419Z,5.40
2022-12-26T18:33:24.733Z,5.20
2022-12-26T18:35:51.850Z,5.60
2022-12-26T18:38:20.157Z,6.10
2022-12-26T18:40:52.428Z,6.50
2022-12-26T18:43:19.369Z,6.20
2022-12-26T18:45:46.396Z,6.20
2022-12-26T18:48:16.238Z,5.90
2022-12-26T18:50:43.656Z,5.30
2022-12-26T18:53:11.137Z,5.90
2022-12-26T18:55:39.027Z,5.60
2022-12-26T18:58:06.443Z,5.70
2022-12-26T19:00:33.481Z,5.40
2022-12-26T19:03:00.165Z,5.50
2022-12-26T19:05:33.648Z,5.90
2022-12-26T19:08:01.577Z,6.10
2022-12-26T19:10:31.395Z,6.40
2022-12-26T19:13:05.568Z,6.30
2022-12-26T19:15:34.744Z,6.30
2022-12-26T19:18:03.721Z,6.80
2022-12-26T19:20:31.347Z,5.60
2022-12-26T19:22:57.935Z,5.60
2022-12-26T19:25:25.492Z,5.00
2022-12-26T19:27:52.896Z,5.30
2022-12-26T19:30:20.917Z,5.10
2022-12-26T19:32:48.465Z,5.60
2022-12-26T19:35:16.110Z,5.30
2022-12-26T19:37:43.028Z,5.70
2022-12-26T19:40:11.131Z,5.90
2022-12-26T19:42:37.969Z,5.40
2022-12-26T19:45:06.219Z,5.60
2022-12-26T19:47:34.180Z,6.40
2022-12-26T19:50:01.988Z,6.10
2022-12-26T19:52:28.716Z,6.40
2022-12-26T19:54:55.351Z,7.60
2022-12-26T19:57:22.908Z,7.20
2022-12-26T19:59:50.474Z,6.90
2022-12-26T20:02:17.523Z,6.00
2022-12-26T20:04:44.763Z,5.80
2022-12-26T20:07:11.405Z,6.20
2022-12-26T20:09:38.247Z,6.10
2022-12-26T20:12:05.985Z,5.70
2022-12-26T20:14:32.727Z,5.50
2022-12-26T20:17:05.592Z,5.30
2022-12-26T20:19:34.353Z,5.70
2022-12-26T20:22:01.273Z,5.60
2022-12-26T20:24:28.005Z,6.30
2022-12-26T20:26:54.741Z,6.40
2022-12-26T20:29:21.395Z,6.70
2022-12-26T20:31:49.034Z,7.40
2022-12-26T20:34:16.347Z,7.20
2022-12-26T20:36:43.451Z,6.60
2022-12-26T20:39:14.656Z,6.50
2022-12-26T20:41:41.438Z,6.30
2022-12-26T20:44:08.168Z,6.50
2022-12-26T20:46:35.371Z,5.90
2022-12-26T20:49:04.092Z,6.40
2022-12-26T20:51:37.481Z,6.60
2022-12-26T20:54:06.835Z,6.70
2022-12-26T20:56:34.757Z,6.80
2022-12-26T20:59:02.575Z,6.20
2022-12-26T21:01:29.488Z,6.80
2022-12-26T21:03:56.840Z,6.50
2022-12-26T21:06:33.574Z,5.30
2022-12-26T21:09:00.779Z,5.50
2022-12-26T21:11:33.921Z,5.80
2022-12-26T21:14:03.644Z,5.40
2022-12-26T21:16:31.733Z,5.60
2022-12-26T21:18:58.764Z,6.00
2022-12-26T21:21:28.224Z,5.50
2022-12-26T21:24:00.966Z,5.30
2022-12-26T21:26:28.562Z,5.30
2022-12-26T21:29:04.795Z,5.30
2022-12-26T21:31:33.139Z,4.80
2022-12-26T21:34:01.210Z,4.80
2022-12-26T21:36:29.447Z,4.70
2022-12-26T21:38:57.102Z,4.60
2022-12-26T21:41:25.012Z,5.20
2022-12-26T21:43:53.697Z,4.30
2022-12-26T21:46:20.502Z,5.00
2022-12-26T21:48:47.451Z,5.30
2022-12-26T21:51:15.054Z,5.70
2022-12-26T21:53:42.559Z,5.80
2022-12-26T21:56:11.184Z,4.70
2022-12-26T21:58:58.504Z,4.80
2022-12-26T22:01:26.538Z,4.80
2022-12-26T22:04:12.259Z,4.60
2022-12-26T22:06:39.450Z,4.60
2022-12-26T22:09:06.877Z,5.10
2022-12-26T22:11:52.443Z,4.90
2022-12-26T22:14:19.498Z,5.00
2022-12-26T22:16:46.328Z,5.20
2022-12-26T22:19:13.093Z,6.00
2022-12-26T22:21:39.810Z,6.10
2022-12-26T22:24:06.752Z,6.50
2022-12-26T22:26:33.389Z,6.60
2022-12-26T22:29:00.029Z,7.60
2022-12-26T22:31:31.726Z,8.50
2022-12-26T22:34:01.300Z,8.90
2022-12-26T22:36:29.793Z,8.70
2022-12-26T22:38:58.360Z,7.90
2022-12-26T22:41:25.397Z,7.40
2022-12-26T22:43:55.350Z,6.90
2022-12-26T22:46:22.385Z,4.50
2022-12-26T22:48:49.428Z,3.90
2022-12-26T22:51:24.398Z,2.90
2022-12-26T22:53:57.009Z,2.10
2022-12-26T22:56:23.855Z,2.00
2022-12-26T22:58:59.973Z,1.50
2022-12-26T23:01:26.614Z,1.60
2022-12-26T23:03:53.439Z,1.50
2022-12-26T23:06:25.108Z,1.50
2022-12-26T23:08:55.973Z,1.40
2022-12-26T23:11:28.746Z,1.40
2022-12-26T23:14:01.713Z,1.50
2022-12-26T23:16:49.894Z,1.50
2022-12-26T23:19:45.829Z,1.40
2022-12-26T23:22:12.782Z,1.50
2022-12-26T23:24:39.495Z,1.30
2022-12-26T23:27:27.331Z,1.30
2022-12-26T23:30:13.633Z,1.20
2022-12-26T23:32:41.935Z,1.50
2022-12-26T23:35:10.585Z,1.50
2022-12-26T23:37:38.764Z,1.30
2022-12-26T23:40:07.485Z,1.30
2022-12-26T23:42:34.094Z,1.40
2022-12-26T23:45:00.801Z,1.80
2022-12-26T23:47:27.982Z,2.20
2022-12-26T23:49:54.720Z,1.60
2022-12-26T23:52:25.351Z,2.00
2022-12-26T23:54:55.055Z,1.70
2022-12-26T23:57:21.724Z,1.60
2022-12-26T23:59:48.421Z,1.70
